createdAt,value
2022-09-04T00:01:14.085Z,98738.75
2022-09-04T00:04:14.765Z,98735.16
2022-09-04T00:06:55.613Z,98727.94
2022-09-04T00:09:37.540Z,98741.69
2022-09-04T00:12:08.930Z,98739.22
2022-09-04T00:14:50.771Z,98742.94
2022-09-04T00:17:48.256Z,98747.50
2022-09-04T00:20:17.790Z,98756.47
2022-09-04T00:22:47.373Z,98752.78
2022-09-04T00:25:28.638Z,98752.53
2022-09-04T00:28:05.329Z,98752.41
2022-09-04T00:30:35.840Z,98747.13
2022-09-04T00:33:41.372Z,98749.81
2022-09-04T00:36:08.747Z,98760.03
2022-09-04T00:38:48.929Z,98758.44
2022-09-04T00:41:39.111Z,98760.16
2022-09-04T00:44:34.706Z,98754.88
2022-09-04T00:47:28.995Z,98760.31
2022-09-04T00:49:59.636Z,98770.13
2022-09-04T00:52:58.165Z,98764.59
2022-09-04T00:55:44.312Z,98764.59
2022-09-04T00:58:51.420Z,98766.31
2022-09-04T01:01:27.642Z,98768.28
2022-09-04T01:04:03.424Z,98770.00
2022-09-04T01:06:37.930Z,98761.88
2022-09-04T01:09:31.253Z,98768.03
2022-09-04T01:12:43.667Z,98766.81
2022-09-04T01:15:21.087Z,98776.78
2022-09-04T01:18:30.967Z,98772.94
2022-09-04T01:21:15.172Z,98773.94
2022-09-04T01:23:47.989Z,98773.94
2022-09-04T01:26:17.385Z,98772.81
2022-09-04T01:28:59.321Z,98763.59
2022-09-04T01:31:41.982Z,98770.75
2022-09-04T01:34:08.848Z,98777.13
2022-09-04T01:36:50.138Z,98774.41
2022-09-04T01:39:22.763Z,98776.03
2022-09-04T01:42:00.417Z,98778.75
2022-09-04T01:44:27.908Z,98785.75
2022-09-04T01:47:21.375Z,98783.78
2022-09-04T01:49:58.362Z,98775.66
2022-09-04T01:52:48.613Z,98765.81
2022-09-04T01:55:31.813Z,98771.22
2022-09-04T01:58:35.931Z,98770.47
2022-09-04T02:01:14.458Z,98769.72
2022-09-04T02:03:57.466Z,98772.44
2022-09-04T02:06:36.675Z,98768.75
2022-09-04T02:09:36.439Z,98768.75
2022-09-04T02:12:07.150Z,98777.00
2022-09-04T02:14:49.638Z,98782.66
2022-09-04T02:17:44.892Z,98777.13
2022-09-04T02:20:22.266Z,98769.72
2022-09-04T02:23:11.896Z,98762.22
2022-09-04T02:25:51.009Z,98770.22
2022-09-04T02:28:48.758Z,98772.81
2022-09-04T02:31:24.458Z,98762.72
2022-09-04T02:34:29.882Z,98766.16
2022-09-04T02:37:01.809Z,98760.75
2022-09-04T02:40:06.112Z,98762.22
2022-09-04T02:42:54.723Z,98754.69
2022-09-04T02:45:44.868Z,98752.47
2022-09-04T02:48:45.142Z,98750.38
2022-09-04T02:51:31.183Z,98741.97
2022-09-04T02:54:14.662Z,98749.13
2022-09-04T02:57:00.131Z,98750.84
2022-09-04T02:59:52.935Z,98745.19
2022-09-04T03:02:24.578Z,98746.75
2022-09-04T03:05:15.609Z,98750.19
2022-09-04T03:08:06.632Z,98753.63
2022-09-04T03:10:50.870Z,98743.69
2022-09-04T03:13:28.238Z,98748.09
2022-09-04T03:16:24.213Z,98752.38
2022-09-04T03:19:22.137Z,98749.56
2022-09-04T03:22:10.716Z,98759.31
2022-09-04T03:24:58.669Z,98757.81
2022-09-04T03:27:27.544Z,98749.69
2022-09-04T03:30:08.143Z,98748.47
2022-09-04T03:32:55.525Z,98754.34
2022-09-04T03:35:42.418Z,98748.91
2022-09-04T03:38:34.043Z,98747.94
2022-09-04T03:41:31.356Z,98755.06
2022-09-04T03:44:12.275Z,98755.06
2022-09-04T03:46:50.925Z,98757.78
2022-09-04T03:49:54.806Z,98754.81
2022-09-04T03:52:37.012Z,98750.13
2022-09-04T03:55:16.580Z,98761.81
2022-09-04T03:57:56.272Z,98757.41
2022-09-04T04:00:23.187Z,98760.13
2022-09-04T04:03:31.493Z,98762.69
2022-09-04T04:06:06.987Z,98764.53
2022-09-04T04:08:59.207Z,98760.00
2022-09-04T04:12:00.231Z,98758.97
2022-09-04T04:14:59.475Z,98766.16
2022-09-04T04:17:51.006Z,98773.06
2022-09-04T04:20:42.426Z,98772.16
2022-09-04T04:23:18.596Z,98771.31
2022-09-04T04:26:00.762Z,98772.16
2022-09-04T04:29:00.021Z,98774.75
2022-09-04T04:31:46.075Z,98781.31
2022-09-04T04:34:22.618Z,98779.44
2022-09-04T04:36:59.985Z,98783.16
2022-09-04T04:39:57.295Z,98787.84
2022-09-04T04:42:55.226Z,98786.84
2022-09-04T04:45:52.321Z,98794.22
2022-09-04T04:48:56.309Z,98805.06
2022-09-04T04:51:39.907Z,98799.75
2022-09-04T04:54:37.125Z,98810.47
2022-09-04T04:57:27.768Z,98811.50
2022-09-04T05:00:25.282Z,98807.78
2022-09-04T05:03:19.177Z,98814.03
2022-09-04T05:06:10.303Z,98815.28
2022-09-04T05:08:50.238Z,98828.72
2022-09-04T05:11:47.411Z,98830.31
2022-09-04T05:14:22.733Z,98842.16
2022-09-04T05:17:01.229Z,98833.94
2022-09-04T05:19:52.600Z,98829.44
2022-09-04T05:22:42.459Z,98829.97
2022-09-04T05:25:16.935Z,98830.94
2022-09-04T05:27:43.595Z,98832.91
2022-09-04T05:30:47.959Z,98835.63
2022-09-04T05:33:53.005Z,98834.66
2022-09-04T05:36:38.399Z,98839.22
2022-09-04T05:39:13.954Z,98838.09
2022-09-04T05:42:06.358Z,98841.06
2022-09-04T05:44:59.842Z,98843.16
2022-09-04T05:47:56.443Z,98843.94
2022-09-04T05:50:44.173Z,98855.75
2022-09-04T05:53:39.308Z,98855.53
2022-09-04T05:56:30.444Z,98867.59
2022-09-04T05:59:24.125Z,98872.50
2022-09-04T06:02:15.534Z,98875.56
2022-09-04T06:05:10.913Z,98871.59
2022-09-04T06:07:53.225Z,98872.09
2022-09-04T06:10:57.892Z,98879.63
2022-09-04T06:13:36.386Z,98877.03
2022-09-04T06:16:29.519Z,98872.81
2022-09-04T06:19:17.667Z,98874.66
2022-09-04T06:22:10.046Z,98882.16
2022-09-04T06:24:53.129Z,98882.59
2022-09-04T06:27:57.763Z,98877.41
2022-09-04T06:30:31.500Z,98881.91
2022-09-04T06:33:30.258Z,98877.31
2022-09-04T06:36:13.285Z,98875.00
2022-09-04T06:39:00.967Z,98877.13
2022-09-04T06:41:44.755Z,98885.84
2022-09-04T06:44:26.987Z,98881.44
2022-09-04T06:47:06.608Z,98887.22
2022-09-04T06:50:09.718Z,98894.72
2022-09-04T06:53:04.585Z,98909.41
2022-09-04T06:56:05.409Z,98910.00
2022-09-04T06:58:40.970Z,98920.06
2022-09-04T07:01:13.712Z,98927.09
2022-09-04T07:03:46.355Z,98925.06
2022-09-04T07:06:22.211Z,98920.47
2022-09-04T07:09:16.984Z,98915.44
2022-09-04T07:12:12.681Z,98919.34
2022-09-04T07:15:01.177Z,98925.28
2022-09-04T07:17:36.977Z,98921.19
2022-09-04T07:20:14.635Z,98919.50
2022-09-04T07:22:59.797Z,98927.25
2022-09-04T07:25:39.723Z,98917.38
2022-09-04T07:28:51.990Z,98927.41
2022-09-04T07:31:27.603Z,98929.72
2022-09-04T07:34:12.663Z,98932.31
2022-09-04T07:37:03.008Z,98927.16
2022-09-04T07:39:46.821Z,98938.47
2022-09-04T07:42:26.415Z,98938.31
2022-09-04T07:45:16.703Z,98951.78
2022-09-04T07:47:50.090Z,98947.72
2022-09-04T07:50:29.475Z,98954.72
2022-09-04T07:53:30.992Z,98952.81
2022-09-04T07:56:20.391Z,98958.41
2022-09-04T07:58:55.882Z,98969.19
2022-09-04T08:01:50.410Z,98963.72
2022-09-04T08:04:38.273Z,98967.25
2022-09-04T08:07:12.443Z,98966.78
2022-09-04T08:09:54.017Z,98974.22
2022-09-04T08:13:08.927Z,98972.47
2022-09-04T08:15:42.173Z,98982.44
2022-09-04T08:18:30.375Z,98987.03
2022-09-04T08:21:17.719Z,98992.66
2022-09-04T08:23:50.145Z,98992.09
2022-09-04T08:26:19.463Z,99000.41
2022-09-04T08:29:24.081Z,99007.19
2022-09-04T08:32:09.293Z,99004.47
2022-09-04T08:34:50.591Z,98999.44
2022-09-04T08:37:26.979Z,99010.38
2022-09-04T08:40:13.460Z,99018.16
2022-09-04T08:43:07.722Z,99007.84
2022-09-04T08:45:42.207Z,99005.97
2022-09-04T08:48:41.057Z,99009.41
2022-09-04T08:51:19.917Z,99016.16
2022-09-04T08:54:12.365Z,99017.44
2022-09-04T08:56:58.389Z,99023.47
2022-09-04T09:00:02.922Z,99019.59
2022-09-04T09:02:48.061Z,99021.59
2022-09-04T09:05:20.558Z,99024.06
2022-09-04T09:08:01.941Z,99025.91
2022-09-04T09:10:44.625Z,99028.47
2022-09-04T09:13:26.401Z,99031.91
2022-09-04T09:16:14.781Z,99038.34
2022-09-04T09:18:47.675Z,99039.69
2022-09-04T09:21:42.546Z,99041.59
2022-09-04T09:24:44.557Z,99040.34
2022-09-04T09:27:14.897Z,99044.81
2022-09-04T09:29:56.727Z,99045.84
2022-09-04T09:32:26.315Z,99046.00
2022-09-04T09:35:13.925Z,99050.53
2022-09-04T09:37:43.870Z,99050.16
2022-09-04T09:40:42.230Z,99041.28
2022-09-04T09:43:46.508Z,99037.75
2022-09-04T09:46:39.442Z,99034.31
2022-09-04T09:49:18.031Z,99024.13
2022-09-04T09:52:03.534Z,99032.53
2022-09-04T09:54:55.518Z,99033.91
2022-09-04T09:57:33.173Z,99034.16
2022-09-04T10:00:21.465Z,99041.44
2022-09-04T10:03:17.186Z,99042.06
2022-09-04T10:06:05.721Z,99038.19
2022-09-04T10:08:50.305Z,99052.00
2022-09-04T10:11:28.992Z,99046.81
2022-09-04T10:14:30.771Z,99047.00
2022-09-04T10:17:27.209Z,99045.00
2022-09-04T10:20:42.054Z,99047.47
2022-09-04T10:23:42.692Z,99054.13
2022-09-04T10:26:47.848Z,99048.53
2022-09-04T10:29:45.257Z,99049.81
2022-09-04T10:32:11.846Z,99051.56
2022-09-04T10:35:09.703Z,99060.03
2022-09-04T10:38:00.570Z,99061.44
2022-09-04T10:40:46.057Z,99061.88
2022-09-04T10:43:40.506Z,99064.63
2022-09-04T10:46:26.370Z,99059.91
2022-09-04T10:49:30.569Z,99056.34
2022-09-04T10:52:09.360Z,99061.78
2022-09-04T10:55:21.297Z,99065.22
2022-09-04T10:58:03.318Z,99073.97
2022-09-04T11:00:50.661Z,99074.53
2022-09-04T11:03:28.482Z,99074.25
2022-09-04T11:06:11.216Z,99072.09
2022-09-04T11:08:56.488Z,99077.81
2022-09-04T11:11:39.210Z,99079.25
2022-09-04T11:14:43.601Z,99076.66
2022-09-04T11:17:19.727Z,99076.78
2022-09-04T11:20:28.545Z,99068.84
2022-09-04T11:23:32.150Z,99067.16
2022-09-04T11:26:05.788Z,99067.16
2022-09-04T11:28:40.477Z,99076.16
2022-09-04T11:31:49.626Z,99077.31
2022-09-04T11:34:57.027Z,99074.66
2022-09-04T11:38:04.470Z,99076.22
2022-09-04T11:41:05.630Z,99081.56
2022-09-04T11:43:55.976Z,99085.16
2022-09-04T11:46:39.354Z,99089.59
2022-09-04T11:49:27.052Z,99084.28
2022-09-04T11:52:40.571Z,99082.13
2022-09-04T11:55:48.387Z,99079.13
2022-09-04T11:58:24.595Z,99074.38
2022-09-04T12:01:00.994Z,99074.53
2022-09-04T12:03:46.978Z,99079.38
2022-09-04T12:06:48.723Z,99077.09
2022-09-04T12:09:36.618Z,99078.09
2022-09-04T12:12:29.166Z,99069.78
2022-09-04T12:15:24.100Z,99065.50
2022-09-04T12:18:19.265Z,99064.63
2022-09-04T12:21:05.679Z,99062.06
2022-09-04T12:24:03.726Z,99069.34
2022-09-04T12:27:03.344Z,99069.09
2022-09-04T12:29:37.173Z,99074.53
2022-09-04T12:32:19.629Z,99070.34
2022-09-04T12:34:50.626Z,99073.06
2022-09-04T12:37:51.245Z,99065.06
2022-09-04T12:40:27.068Z,99068.41
2022-09-04T12:43:20.741Z,99059.78
2022-09-04T12:46:12.926Z,99059.25
2022-09-04T12:49:02.220Z,99055.59
2022-09-04T12:51:52.000Z,99060.34
2022-09-04T12:54:52.259Z,99048.81
2022-09-04T12:57:40.397Z,99062.00
2022-09-04T13:00:12.984Z,99056.03
2022-09-04T13:03:05.364Z,99065.22
2022-09-04T13:05:53.503Z,99066.84
2022-09-04T13:09:25.289Z,99058.44
2022-09-04T13:12:02.546Z,99059.56
2022-09-04T13:14:50.651Z,99050.81
2022-09-04T13:17:26.062Z,99049.59
2022-09-04T13:20:06.508Z,99048.69
2022-09-04T13:22:59.201Z,99057.47
2022-09-04T13:25:35.408Z,99047.97
2022-09-04T13:28:31.602Z,99060.88
2022-09-04T13:31:09.123Z,99068.38
2022-09-04T13:33:59.186Z,99067.66
2022-09-04T13:36:37.363Z,99072.44
2022-09-04T13:39:28.485Z,99068.34
2022-09-04T13:42:00.050Z,99069.25
2022-09-04T13:45:05.832Z,99067.56
2022-09-04T13:47:49.587Z,99066.00
2022-09-04T13:50:25.573Z,99070.25
2022-09-04T13:53:16.529Z,99063.25
2022-09-04T13:56:14.542Z,99065.47
2022-09-04T13:58:52.967Z,99065.63
2022-09-04T14:01:28.291Z,99062.72
2022-09-04T14:04:05.054Z,99060.81
2022-09-04T14:06:32.922Z,99060.50
2022-09-04T14:09:05.421Z,99059.47
2022-09-04T14:11:58.558Z,99063.38
2022-09-04T14:14:34.943Z,99068.69
2022-09-04T14:17:01.706Z,99069.84
2022-09-04T14:20:03.942Z,99068.59
2022-09-04T14:22:52.929Z,99076.94
2022-09-04T14:25:39.454Z,99074.66
2022-09-04T14:28:48.408Z,99070.69
2022-09-04T14:31:35.359Z,99073.44
2022-09-04T14:34:17.386Z,99071.25
2022-09-04T14:37:08.295Z,99075.03
2022-09-04T14:39:49.123Z,99065.91
2022-09-04T14:42:27.088Z,99069.16
2022-09-04T14:45:18.313Z,99072.91
2022-09-04T14:47:55.070Z,99086.25
2022-09-04T14:50:32.265Z,99077.81
2022-09-04T14:53:07.788Z,99082.91
2022-09-04T14:55:41.643Z,99088.88
2022-09-04T14:58:24.976Z,99093.81
2022-09-04T15:01:04.068Z,99095.16
2022-09-04T15:03:45.750Z,99094.47
2022-09-04T15:06:19.321Z,99094.06
2022-09-04T15:08:51.850Z,99093.75
2022-09-04T15:11:32.243Z,99100.00
2022-09-04T15:14:34.326Z,99100.03
2022-09-04T15:17:04.999Z,99091.19
2022-09-04T15:20:17.055Z,99092.94
2022-09-04T15:22:54.399Z,99089.19
2022-09-04T15:25:58.872Z,99098.31
2022-09-04T15:28:48.010Z,99097.97
2022-09-04T15:31:42.689Z,99084.25
2022-09-04T15:34:26.102Z,99093.13
2022-09-04T15:36:53.831Z,99085.59
2022-09-04T15:39:48.713Z,99094.63
2022-09-04T15:42:37.460Z,99098.72
2022-09-04T15:45:14.146Z,99099.34
2022-09-04T15:48:22.727Z,99100.00
2022-09-04T15:51:01.898Z,99095.78
2022-09-04T15:53:37.957Z,99091.44
2022-09-04T15:56:33.048Z,99090.69
2022-09-04T15:59:15.333Z,99094.84
2022-09-04T16:01:51.642Z,99095.66
2022-09-04T16:04:46.146Z,99088.25
2022-09-04T16:07:19.900Z,99092.63
2022-09-04T16:09:54.424Z,99090.81
2022-09-04T16:12:30.974Z,99094.09
2022-09-04T16:15:04.293Z,99102.97
2022-09-04T16:17:45.528Z,99096.00
2022-09-04T16:20:23.704Z,99106.13
2022-09-04T16:23:02.485Z,99084.88
2022-09-04T16:25:45.521Z,99097.00
2022-09-04T16:31:16.301Z,99098.47
2022-09-04T16:33:51.854Z,99105.81
2022-09-04T16:36:29.001Z,99102.03
2022-09-04T16:39:02.438Z,99105.47
2022-09-04T16:41:51.454Z,99103.63
2022-09-04T16:44:26.279Z,99112.53
2022-09-04T16:47:49.230Z,99117.28
2022-09-04T16:50:55.974Z,99116.56
2022-09-04T16:56:51.869Z,99115.59
2022-09-04T16:59:33.081Z,99124.56
2022-09-04T17:02:41.961Z,99121.84
2022-09-04T17:05:42.931Z,99122.59
2022-09-04T17:08:29.385Z,99125.03
2022-09-04T17:11:23.183Z,99128.78
2022-09-04T17:14:08.885Z,99128.94
2022-09-04T17:16:53.491Z,99126.34
2022-09-04T17:19:22.299Z,99132.66
2022-09-04T17:28:48.765Z,99130.66
2022-09-04T17:29:10.107Z,99134.97
2022-09-04T17:29:13.399Z,99136.13
2022-09-04T17:31:58.041Z,99133.94
2022-09-04T17:38:22.978Z,99143.16
2022-09-04T17:40:55.517Z,99139.00
2022-09-04T17:41:31.198Z,99146.91
2022-09-04T17:44:27.894Z,99142.75
2022-09-04T17:47:26.994Z,99146.50
2022-09-04T17:49:55.713Z,99147.66
2022-09-04T17:52:35.247Z,99157.72
2022-09-04T17:55:04.341Z,99158.88
2022-09-04T17:57:56.955Z,99159.44
2022-09-04T18:00:33.035Z,99172.38
2022-09-04T18:03:10.790Z,99176.69
2022-09-04T18:05:53.618Z,99182.88
2022-09-04T18:08:32.609Z,99177.28
2022-09-04T18:11:09.432Z,99185.28
2022-09-04T18:13:56.626Z,99188.91
2022-09-04T18:17:12.458Z,99189.03
2022-09-04T18:19:48.753Z,99196.50
2022-09-04T18:22:33.207Z,99201.13
2022-09-04T18:25:17.000Z,99189.47
2022-09-04T18:28:07.539Z,99194.91
2022-09-04T18:37:09.857Z,99203.41
2022-09-04T18:37:15.979Z,99207.28
2022-09-04T18:37:55.266Z,99219.22
2022-09-04T18:40:53.515Z,99214.91
2022-09-04T18:50:20.339Z,99216.34
2022-09-04T18:50:44.948Z,99220.06
2022-09-04T18:50:53.243Z,99216.91
2022-09-04T18:52:06.317Z,99227.53
2022-09-04T18:54:47.930Z,99226.97
2022-09-04T18:57:27.160Z,99237.28
2022-09-04T19:00:07.943Z,99234.69
2022-09-04T19:02:53.763Z,99226.69
2022-09-04T19:05:22.076Z,99229.66
2022-09-04T19:07:57.003Z,99237.97
2022-09-04T19:10:31.282Z,99228.22
2022-09-04T19:13:22.500Z,99235.81
2022-09-04T19:15:58.176Z,99231.78
2022-09-04T19:18:46.725Z,99230.09
2022-09-04T19:21:21.712Z,99240.25
2022-09-04T19:23:58.883Z,99242.13
2022-09-04T19:26:42.567Z,99236.06
2022-09-04T19:29:30.706Z,99243.66
2022-09-04T19:32:18.691Z,99237.22
2022-09-04T19:34:52.729Z,99240.94
2022-09-04T19:40:16.592Z,99242.09
2022-09-04T19:45:59.278Z,99237.81
2022-09-04T19:46:15.954Z,99236.06
2022-09-04T19:46:53.996Z,99239.94
2022-09-04T19:51:50.946Z,99235.22
2022-09-04T19:53:32.278Z,99241.09
2022-09-04T19:55:40.695Z,99239.47
2022-09-04T19:58:20.594Z,99247.97
2022-09-04T20:00:55.341Z,99249.22
2022-09-04T20:03:30.474Z,99251.38
2022-09-04T20:06:20.562Z,99245.34
2022-09-04T20:09:17.799Z,99246.63
2022-09-04T20:11:54.551Z,99249.59
2022-09-04T20:14:39.793Z,99250.47
2022-09-04T20:17:43.904Z,99245.16
2022-09-04T20:20:23.242Z,99245.44
2022-09-04T20:22:56.424Z,99254.59
2022-09-04T20:25:40.731Z,99251.03
2022-09-04T20:28:25.051Z,99254.34
2022-09-04T20:31:33.341Z,99248.75
2022-09-04T20:34:44.819Z,99248.63
2022-09-04T20:37:29.481Z,99249.75
2022-09-04T20:40:07.860Z,99259.06
2022-09-04T20:42:43.624Z,99254.59
2022-09-04T20:50:34.705Z,99257.03
2022-09-04T20:53:00.038Z,99259.72
2022-09-04T20:53:06.322Z,99262.19
2022-09-04T20:54:29.147Z,99263.09
2022-09-04T21:00:07.608Z,99267.94
2022-09-04T21:03:21.099Z,99279.03
2022-09-04T21:03:23.560Z,99267.59
2022-09-04T21:06:30.079Z,99281.03
2022-09-04T21:09:13.279Z,99273.28
2022-09-04T21:11:45.318Z,99275.53
2022-09-04T21:14:29.981Z,99276.06
2022-09-04T21:17:35.628Z,99275.47
2022-09-04T21:20:08.463Z,99274.25
2022-09-04T21:22:59.828Z,99280.13
2022-09-04T21:25:35.783Z,99284.22
2022-09-04T21:28:26.614Z,99283.88
2022-09-04T21:31:10.318Z,99289.84
2022-09-04T21:34:09.802Z,99285.91
2022-09-04T21:37:02.715Z,99289.16
2022-09-04T21:39:58.505Z,99299.56
2022-09-04T21:42:31.224Z,99300.56
2022-09-04T21:45:04.752Z,99291.41
2022-09-04T21:47:50.134Z,99299.56
2022-09-04T21:50:28.485Z,99304.88
2022-09-04T21:53:47.699Z,99305.03
2022-09-04T22:01:33.221Z,99308.94
2022-09-04T22:02:31.713Z,99297.31
2022-09-04T22:03:02.434Z,99309.69
2022-09-04T22:05:43.910Z,99306.00
2022-09-04T22:12:16.849Z,99307.75
2022-09-04T22:13:37.503Z,99296.72
2022-09-04T22:14:25.626Z,99310.69
2022-09-04T22:17:06.802Z,99307.75
2022-09-04T22:19:58.290Z,99303.28
2022-09-04T22:22:54.710Z,99306.25
2022-09-04T22:25:27.258Z,99310.94
2022-09-04T22:28:21.514Z,99309.22
2022-09-04T22:31:03.004Z,99303.78
2022-09-04T22:34:15.040Z,99298.34
2022-09-04T22:37:05.304Z,99293.28
2022-09-04T22:39:54.317Z,99304.78
2022-09-04T22:42:56.182Z,99309.03
2022-09-04T22:45:44.694Z,99305.09
2022-09-04T22:48:33.024Z,99305.72
2022-09-04T22:51:33.228Z,99310.94
2022-09-04T22:53:59.893Z,99317.72
2022-09-04T22:56:32.486Z,99309.06
2022-09-04T22:59:29.040Z,99315.50
2022-09-04T23:02:17.184Z,99314.75
2022-09-04T23:05:28.579Z,99315.75
2022-09-04T23:13:49.834Z,99325.13
2022-09-04T23:13:51.398Z,99315.97
2022-09-04T23:14:45.330Z,99319.09
2022-09-04T23:17:30.532Z,99321.69
2022-09-04T23:26:38.020Z,99321.78
2022-09-04T23:26:42.225Z,99315.00
2022-09-04T23:26:49.409Z,99323.50
2022-09-04T23:29:55.818Z,99324.13
2022-09-04T23:33:02.738Z,99317.59
2022-09-04T23:36:00.022Z,99319.09
2022-09-04T23:39:27.880Z,99314.13
2022-09-04T23:42:36.031Z,99315.63
2022-09-04T23:45:18.305Z,99321.66
2022-09-04T23:48:17.370Z,99321.28
2022-09-04T23:50:49.890Z,99323.72
2022-09-04T23:54:25.082Z,99322.63
2022-09-04T23:57:27.987Z,99318.69
